createdAt,value
2023-02-08T00:01:33.557Z,2.86
2023-02-08T00:04:02.367Z,2.72
2023-02-08T00:06:30.905Z,2.77
2023-02-08T00:09:00.130Z,2.76
2023-02-08T00:11:28.484Z,2.82
2023-02-08T00:13:56.720Z,2.89
2023-02-08T00:16:25.194Z,2.93
2023-02-08T00:18:53.718Z,2.89
2023-02-08T00:21:22.725Z,2.75
2023-02-08T00:23:51.317Z,2.79
2023-02-08T00:26:20.051Z,2.86
2023-02-08T00:28:48.250Z,2.76
2023-02-08T00:31:16.664Z,2.77
2023-02-08T00:33:45.991Z,2.79
2023-02-08T00:36:14.437Z,2.85
2023-02-08T00:38:42.834Z,2.98
2023-02-08T00:41:11.654Z,2.97
2023-02-08T00:43:40.145Z,2.90
2023-02-08T00:46:09.854Z,2.91
2023-02-08T00:48:38.271Z,2.93
2023-02-08T00:51:13.940Z,3.04
2023-02-08T00:53:45.606Z,2.90
2023-02-08T00:56:16.085Z,2.80
2023-02-08T00:58:45.196Z,2.81
2023-02-08T01:01:14.546Z,2.71
2023-02-08T01:03:45.707Z,2.80
2023-02-08T01:06:17.075Z,2.86
2023-02-08T01:08:45.529Z,2.87
2023-02-08T01:11:18.685Z,2.86
2023-02-08T01:13:47.267Z,2.79
2023-02-08T01:16:21.692Z,2.81
2023-02-08T01:18:52.750Z,2.88
2023-02-08T01:21:24.395Z,2.90
2023-02-08T01:23:53.312Z,2.88
2023-02-08T01:26:22.898Z,2.77
2023-02-08T01:28:52.249Z,2.89
2023-02-08T01:31:42.318Z,2.92
2023-02-08T01:34:12.876Z,2.81
2023-02-08T01:36:41.466Z,2.87
2023-02-08T01:39:11.351Z,2.85
2023-02-08T01:41:44.572Z,2.93
2023-02-08T01:44:12.827Z,2.99
2023-02-08T01:46:51.518Z,2.94
2023-02-08T01:49:33.697Z,2.89
2023-02-08T01:52:22.922Z,2.81
2023-02-08T01:54:53.777Z,2.74
2023-02-08T01:57:23.478Z,2.83
2023-02-08T02:00:14.382Z,2.74
2023-02-08T02:02:44.445Z,2.71
2023-02-08T02:05:13.770Z,2.75
2023-02-08T02:07:42.617Z,2.78
2023-02-08T02:10:16.442Z,2.88
2023-02-08T02:12:46.344Z,2.85
2023-02-08T02:15:14.569Z,2.81
2023-02-08T02:17:43.322Z,2.82
2023-02-08T02:20:27.226Z,2.71
2023-02-08T02:23:17.802Z,2.67
2023-02-08T02:26:23.757Z,2.56
2023-02-08T02:29:33.290Z,2.38
2023-02-08T02:32:20.233Z,2.29
2023-02-08T02:35:02.118Z,2.34
2023-02-08T02:37:31.969Z,2.34
2023-02-08T02:40:08.999Z,2.43
2023-02-08T02:43:27.450Z,2.26
2023-02-08T02:46:06.297Z,2.18
2023-02-08T02:49:06.563Z,2.22
2023-02-08T02:51:48.144Z,2.12
2023-02-08T02:54:51.396Z,2.13
2023-02-08T02:57:27.529Z,2.06
2023-02-08T02:59:58.005Z,2.10
2023-02-08T03:02:28.531Z,2.10
2023-02-08T03:04:58.078Z,1.80
2023-02-08T03:07:55.863Z,1.50
2023-02-08T03:10:41.220Z,1.66
2023-02-08T03:13:25.861Z,1.66
2023-02-08T03:16:16.336Z,1.53
2023-02-08T03:19:12.106Z,1.60
2023-02-08T03:21:58.515Z,1.31
2023-02-08T03:24:32.228Z,1.51
2023-02-08T03:27:18.339Z,1.44
2023-02-08T03:30:02.820Z,1.24
2023-02-08T03:32:42.867Z,1.42
2023-02-08T03:35:27.193Z,1.13
2023-02-08T03:38:02.395Z,1.30
2023-02-08T03:40:44.897Z,1.33
2023-02-08T03:43:22.529Z,1.41
2023-02-08T03:46:14.196Z,1.43
2023-02-08T03:48:48.387Z,1.49
2023-02-08T03:51:18.564Z,1.54
2023-02-08T03:53:49.291Z,1.49
2023-02-08T03:56:23.152Z,1.64
2023-02-08T03:59:05.055Z,1.57
2023-02-08T04:01:41.881Z,1.56
2023-02-08T04:04:12.912Z,1.58
2023-02-08T04:06:41.511Z,1.59
2023-02-08T04:09:10.829Z,1.53
2023-02-08T04:11:41.603Z,1.68
2023-02-08T04:14:09.698Z,1.76
2023-02-08T04:19:37.310Z,1.28
2023-02-08T04:22:05.484Z,0.93
2023-02-08T04:24:33.827Z,0.99
2023-02-08T04:27:03.469Z,0.96
2023-02-08T04:29:33.339Z,1.31
2023-02-08T04:32:01.671Z,1.19
2023-02-08T04:34:30.282Z,1.24
2023-02-08T04:36:58.585Z,1.27
2023-02-08T04:39:26.855Z,1.15
2023-02-08T04:41:55.033Z,1.10
2023-02-08T04:44:23.751Z,1.07
2023-02-08T04:46:52.553Z,1.25
2023-02-08T04:49:20.820Z,1.12
2023-02-08T04:51:52.221Z,1.07
2023-02-08T04:54:20.538Z,1.04
2023-02-08T04:56:49.091Z,0.90
2023-02-08T04:59:17.456Z,0.96
2023-02-08T05:01:49.037Z,0.49
2023-02-08T05:04:18.645Z,0.94
2023-02-08T05:06:48.481Z,0.80
2023-02-08T05:09:17.817Z,0.78
2023-02-08T05:11:46.156Z,0.82
2023-02-08T05:14:14.366Z,0.83
2023-02-08T05:16:42.667Z,0.70
2023-02-08T05:19:14.640Z,0.34
2023-02-08T05:21:42.974Z,0.36
2023-02-08T05:24:12.841Z,0.53
2023-02-08T05:26:42.184Z,0.64
2023-02-08T05:29:13.251Z,0.76
2023-02-08T05:31:41.546Z,0.52
2023-02-08T05:34:09.943Z,0.35
2023-02-08T05:36:38.380Z,0.58
2023-02-08T05:39:08.162Z,0.44
2023-02-08T05:41:37.129Z,0.45
2023-02-08T05:44:05.532Z,0.39
2023-02-08T05:46:34.643Z,0.41
2023-02-08T05:49:03.739Z,0.51
2023-02-08T05:51:32.261Z,0.64
2023-02-08T05:54:00.563Z,0.44
2023-02-08T05:56:29.086Z,0.36
2023-02-08T05:58:57.773Z,0.42
2023-02-08T06:01:26.262Z,0.46
2023-02-08T06:03:55.301Z,0.32
2023-02-08T06:06:24.168Z,0.35
2023-02-08T06:08:52.542Z,0.44
2023-02-08T06:11:20.800Z,0.55
2023-02-08T06:13:49.093Z,0.49
2023-02-08T06:16:19.893Z,0.50
2023-02-08T06:18:48.996Z,0.54
2023-02-08T06:21:18.010Z,0.63
2023-02-08T06:23:47.556Z,0.77
2023-02-08T06:26:15.853Z,0.87
2023-02-08T06:28:47.645Z,0.89
2023-02-08T06:31:16.163Z,1.07
2023-02-08T06:33:44.562Z,1.16
2023-02-08T06:36:12.805Z,1.23
2023-02-08T06:38:41.225Z,1.16
2023-02-08T06:41:09.404Z,1.19
2023-02-08T06:43:41.004Z,1.15
2023-02-08T06:46:09.605Z,1.04
2023-02-08T06:48:39.173Z,0.91
2023-02-08T06:51:08.111Z,1.04
2023-02-08T06:53:36.439Z,0.91
2023-02-08T06:56:05.032Z,1.12
2023-02-08T06:58:33.283Z,1.10
2023-02-08T07:01:01.640Z,0.95
2023-02-08T07:03:30.019Z,1.13
2023-02-08T07:06:04.954Z,1.07
2023-02-08T07:08:36.791Z,0.93
2023-02-08T07:11:13.709Z,1.10
2023-02-08T07:13:45.051Z,1.15
2023-02-08T07:16:20.245Z,1.12
2023-02-08T07:18:50.527Z,1.00
2023-02-08T07:21:19.082Z,0.96
2023-02-08T07:23:47.752Z,0.82
2023-02-08T07:26:17.247Z,0.83
2023-02-08T07:28:45.617Z,0.84
2023-02-08T07:31:17.119Z,0.62
2023-02-08T07:33:45.628Z,0.84
2023-02-08T07:36:14.333Z,0.99
2023-02-08T07:38:42.721Z,1.23
2023-02-08T07:41:14.599Z,1.20
2023-02-08T07:43:43.620Z,0.88
2023-02-08T07:46:18.295Z,0.80
2023-02-08T07:48:46.883Z,1.08
2023-02-08T07:51:17.927Z,0.80
2023-02-08T07:53:46.378Z,0.88
2023-02-08T07:56:14.728Z,0.90
2023-02-08T07:58:43.262Z,0.71
2023-02-08T08:01:22.056Z,0.87
2023-02-08T08:03:52.223Z,0.88
2023-02-08T08:06:22.318Z,0.91
2023-02-08T08:08:51.289Z,1.02
2023-02-08T08:11:24.260Z,0.98
2023-02-08T08:13:54.407Z,0.65
2023-02-08T08:16:22.837Z,0.59
2023-02-08T08:18:51.109Z,0.53
2023-02-08T08:21:20.124Z,0.69
2023-02-08T08:23:48.486Z,0.52
2023-02-08T08:26:20.773Z,0.58
2023-02-08T08:28:49.183Z,0.65
2023-02-08T08:31:21.334Z,0.64
2023-02-08T08:33:50.599Z,0.78
2023-02-08T08:36:19.229Z,0.85
2023-02-08T08:38:47.438Z,0.67
2023-02-08T08:41:18.321Z,0.88
2023-02-08T08:43:47.298Z,0.53
2023-02-08T08:46:20.058Z,0.59
2023-02-08T08:48:48.966Z,0.98
2023-02-08T08:51:17.434Z,1.07
2023-02-08T08:53:46.001Z,0.86
2023-02-08T08:56:14.392Z,0.60
2023-02-08T08:58:44.403Z,0.79
2023-02-08T09:01:14.679Z,0.72
2023-02-08T09:03:43.322Z,0.61
2023-02-08T09:06:11.833Z,0.96
2023-02-08T09:08:40.900Z,0.85
2023-02-08T09:11:11.748Z,0.82
